• Join FlightAware (Why Join?)
  • Login
  • US Flag 
09:51AM EDT


 

Airport Tracker/Info


-or-


 

Live Flight TrackerFlight Track Log ✈ TAM3469 ✈ 05-Aug-2013 ✈ SBGO / GYN - SBSP / CGH

Flight Track Log - Related Links

Times and Time Zones

All times are in EDT time to prevent confusion due to time zone crossing. See the TAM3469 flight status page for this flight to view local times or setup timezone preferences in your user account.

Time Position Orientation Groundspeed Altitude Reporting Facility
EDT Latitude Longitude Course Direction KTS MPH feet Rate Location/Type
07:10PM -18.5849 -48.5281 161° South  Level Estimated
07:11PM -18.6736 -48.4963 161° South  Level Estimated
07:12PM -18.7623 -48.4644 161° South  Level Estimated
07:13PM -18.8510 -48.4325 161° South  Level Estimated
07:14PM -18.9397 -48.4005 161° South  Level Estimated
07:15PM -19.0284 -48.3685 161° South  Level Estimated
07:16PM -19.1171 -48.3365 161° South  Level Estimated
07:17PM -19.2057 -48.3045 161° South  Level Estimated
07:18PM -19.2944 -48.2724 161° South  Level Estimated
07:19PM -19.3831 -48.2403 161° South  Level Estimated
07:20PM -19.4717 -48.2081 161° South  Level Estimated
07:21PM -19.5604 -48.1759 161° South  Level Estimated
07:22PM -19.6490 -48.1437 161° South  Level Estimated
07:23PM -19.7377 -48.1115 161° South  Level Estimated
07:24PM -19.8263 -48.0792 161° South  Level Estimated
07:25PM -19.9149 -48.0468 161° South  Level Estimated
07:26PM -20.0036 -48.0145 161° South  Level Estimated
07:27PM -20.0922 -47.9821 161° South  Level Estimated
07:28PM -20.1808 -47.9496 161° South  Level Estimated
07:29PM -20.2694 -47.9171 161° South  Level Estimated
07:30PM -20.3580 -47.8846 161° South  Level Estimated
07:31PM -20.4466 -47.8521 161° South  Level Estimated
07:32PM -20.5352 -47.8195 161° South  Level Estimated
07:33PM -20.6238 -47.7869 161° South  Level Estimated
07:34PM -20.7124 -47.7542 161° South  Level Estimated
07:35PM -20.8009 -47.7215 161° South  Level Estimated
07:36PM -20.8895 -47.6888 161° South  Level Estimated
07:37PM -20.9780 -47.6560 161° South  Level Estimated
07:38PM -21.0666 -47.6232 161° South  Level Estimated
07:39PM -21.1551 -47.5903 161° South  Level Estimated
07:40PM -21.2437 -47.5574 161° South  Level Estimated
07:41PM -21.3322 -47.5245 161° South  Level Estimated
07:42PM -21.4207 -47.4915 161° South  Level Estimated
07:43PM -21.5093 -47.4585 161° South  Level Estimated
07:44PM -21.5978 -47.4254 161° South  Level Estimated
07:45PM -21.6863 -47.3923 161° South  Level Estimated
07:46PM -21.7748 -47.3592 161° South  Level Estimated
07:47PM -21.8633 -47.3260 161° South  Level Estimated
07:48PM -21.9517 -47.2928 161° South  Level Estimated
07:49PM -22.0402 -47.2595 161° South  Level Estimated
07:50PM -22.1287 -47.2262 161° South  Level Estimated
07:51PM -22.2172 -47.1929 161° South  Level Estimated
07:52PM -22.3056 -47.1595 161° South  Level Estimated
07:53PM -22.3941 -47.1260 161° South  Level Estimated
07:54PM -22.4825 -47.0926 161° South  Level Estimated
07:55PM -22.5710 -47.0591 161° South  Level Estimated
07:56PM -22.6594 -47.0255 161° South  Level Estimated
07:57PM -22.7478 -46.9919 161° South  Level Estimated
07:58PM -22.8362 -46.9583 161° South  Level Estimated
07:59PM -22.9247 -46.9246 161° South  Level Estimated
08:00PM -23.0131 -46.8908 161° South  Level Estimated
08:01PM -23.1014 -46.8571 161° South  Level Estimated
08:02PM -23.1898 -46.8232 161° South  Level Estimated
08:03PM -23.2782 -46.7894 161° South  Level Estimated
08:04PM -23.3666 -46.7555 161° South  Level Estimated
08:05PM -23.4550 -46.7215 161° South  Level Estimated
08:06PM -23.5433 -46.6875 161° South  Level Estimated
08:07PM -23.6267 -46.6554 161° South  Level Estimated
08:08PM -23.6267 -46.6554 114° Southeast  Level Estimated
08:09PM -23.6267 -46.6554 114° Southeast  Level Estimated
08:10PM -23.6267 -46.6554 114° Southeast  Level Estimated
08:11PM -23.6267 -46.6554 114° Southeast  Level Estimated
08:12PM -23.6267 -46.6554 114° Southeast  Level Estimated
08:13PM -23.6267 -46.6554 114° Southeast  Level Estimated
08:14PM -23.6267 -46.6554 114° Southeast  Level Estimated
08:15PM -23.6267 -46.6554 114° Southeast  Level Estimated
08:16PM -23.6267 -46.6554 114° Southeast  Level Estimated
08:17PM -23.6267 -46.6554 114° Southeast  Level Estimated
08:18PM -23.6267 -46.6554 114° Southeast  Level Estimated
08:19PM -23.6267 -46.6554 114° Southeast  Level Estimated
08:20PM -23.6267 -46.6554 114° Southeast  Level Estimated
08:21PM -23.6267 -46.6554 114° Southeast  Level Estimated
08:22PM -23.6267 -46.6554 114° Southeast  Level Estimated
08:23PM -23.6267 -46.6554 114° Southeast  Level Estimated